Axis, Alabama
Current Conditions -  °F | °C
As of 6:53 PM on Wednesday 22 Oct 2014 (Local Time) from KBFM Reporting Station
Clear Clear  
Wind Chill: 21°   Ceiling: Unl
Heat Index: 21°   Visibility: 10mi
Dew Point: 11°   Wind: 7mph
Humidity: 51%   Direction: 360°N
Pressure: 30.06"   Gusts: NA
Location:  30.93°N, 88.03°W
Report Text: KBFM 222353Z 36006KT 10SM CLR 21/11 A3006 RMK AO2 SLP178 T02110106 10256 20206 53008
Loading
Personal Weather Stations






























Interactive Weather Map
Tropical Storm Tracking
New forecast layout! Learn more

10-Day Weather Forecast

Advertisements
Track Severe Weather on mobile